sensor_id;sensor_type;location;lat;lon;timestamp;P1;durP1;ratioP1;P2;durP2;ratioP2
62945;SDS011;52164;52.212;-1.010;2022-08-02T00:01:50;0.30;;;0.30;;
62945;SDS011;52164;52.212;-1.010;2022-08-02T00:04:15;0.30;;;0.30;;
62945;SDS011;52164;52.212;-1.010;2022-08-02T00:06:41;0.40;;;0.40;;
62945;SDS011;52164;52.212;-1.010;2022-08-02T00:09:07;0.40;;;0.40;;
62945;SDS011;52164;52.212;-1.010;2022-08-02T00:11:32;0.40;;;0.40;;
62945;SDS011;52164;52.212;-1.010;2022-08-02T00:13:58;0.40;;;0.40;;
62945;SDS011;52164;52.212;-1.010;2022-08-02T00:16:24;0.40;;;0.40;;
62945;SDS011;52164;52.212;-1.010;2022-08-02T00:18:49;0.40;;;0.40;;
62945;SDS011;52164;52.212;-1.010;2022-08-02T00:21:15;0.30;;;0.30;;
62945;SDS011;52164;52.212;-1.010;2022-08-02T00:23:41;0.30;;;0.30;;
62945;SDS011;52164;52.212;-1.010;2022-08-02T00:26:06;0.40;;;0.40;;
62945;SDS011;52164;52.212;-1.010;2022-08-02T00:28:32;0.40;;;0.40;;
62945;SDS011;52164;52.212;-1.010;2022-08-02T00:30:58;0.40;;;0.40;;
62945;SDS011;52164;52.212;-1.010;2022-08-02T00:33:24;0.30;;;0.30;;
62945;SDS011;52164;52.212;-1.010;2022-08-02T00:35:50;0.40;;;0.40;;
62945;SDS011;52164;52.212;-1.010;2022-08-02T00:38:16;0.40;;;0.40;;
62945;SDS011;52164;52.212;-1.010;2022-08-02T00:40:49;0.30;;;0.30;;
62945;SDS011;52164;52.212;-1.010;2022-08-02T00:43:17;0.40;;;0.40;;
62945;SDS011;52164;52.212;-1.010;2022-08-02T00:45:43;0.40;;;0.40;;
62945;SDS011;52164;52.212;-1.010;2022-08-02T00:48:09;0.40;;;0.40;;
62945;SDS011;52164;52.212;-1.010;2022-08-02T00:50:37;0.40;;;0.40;;
62945;SDS011;52164;52.212;-1.010;2022-08-02T00:53:03;0.40;;;0.40;;
62945;SDS011;52164;52.212;-1.010;2022-08-02T00:55:30;0.40;;;0.40;;
62945;SDS011;52164;52.212;-1.010;2022-08-02T00:57:56;0.40;;;0.40;;
62945;SDS011;52164;52.212;-1.010;2022-08-02T01:00:22;0.50;;;0.50;;
62945;SDS011;52164;52.212;-1.010;2022-08-02T01:02:48;0.40;;;0.40;;
62945;SDS011;52164;52.212;-1.010;2022-08-02T01:05:14;0.40;;;0.40;;
62945;SDS011;52164;52.212;-1.010;2022-08-02T01:07:40;0.40;;;0.40;;
62945;SDS011;52164;52.212;-1.010;2022-08-02T01:10:06;0.40;;;0.40;;
62945;SDS011;52164;52.212;-1.010;2022-08-02T01:12:32;0.40;;;0.40;;
62945;SDS011;52164;52.212;-1.010;2022-08-02T01:14:59;0.40;;;0.40;;
62945;SDS011;52164;52.212;-1.010;2022-08-02T01:22:08;0.40;;;0.40;;
62945;SDS011;52164;52.212;-1.010;2022-08-02T01:23:04;0.40;;;0.40;;
62945;SDS011;52164;52.212;-1.010;2022-08-02T01:28:40;0.40;;;0.40;;
62945;SDS011;52164;52.212;-1.010;2022-08-02T01:33:43;0.40;;;0.40;;
62945;SDS011;52164;52.212;-1.010;2022-08-02T01:36:13;0.40;;;0.40;;
62945;SDS011;52164;52.212;-1.010;2022-08-02T01:38:44;0.40;;;0.40;;
62945;SDS011;52164;52.212;-1.010;2022-08-02T01:41:14;0.40;;;0.40;;
62945;SDS011;52164;52.212;-1.010;2022-08-02T01:43:42;0.40;;;0.40;;
62945;SDS011;52164;52.212;-1.010;2022-08-02T01:46:10;0.40;;;0.40;;
62945;SDS011;52164;52.212;-1.010;2022-08-02T01:48:38;0.40;;;0.40;;
62945;SDS011;52164;52.212;-1.010;2022-08-02T01:51:05;0.40;;;0.40;;
62945;SDS011;52164;52.212;-1.010;2022-08-02T01:56:03;0.40;;;0.40;;
62945;SDS011;52164;52.212;-1.010;2022-08-02T01:58:33;0.40;;;0.40;;
62945;SDS011;52164;52.212;-1.010;2022-08-02T02:01:01;0.50;;;0.50;;
62945;SDS011;52164;52.212;-1.010;2022-08-02T02:03:30;0.40;;;0.40;;
62945;SDS011;52164;52.212;-1.010;2022-08-02T02:05:58;0.40;;;0.40;;
62945;SDS011;52164;52.212;-1.010;2022-08-02T02:08:28;0.40;;;0.40;;
62945;SDS011;52164;52.212;-1.010;2022-08-02T02:10:58;0.40;;;0.40;;
62945;SDS011;52164;52.212;-1.010;2022-08-02T02:13:26;0.40;;;0.40;;
62945;SDS011;52164;52.212;-1.010;2022-08-02T02:15:53;0.40;;;0.40;;
62945;SDS011;52164;52.212;-1.010;2022-08-02T02:18:22;0.40;;;0.40;;
62945;SDS011;52164;52.212;-1.010;2022-08-02T02:20:49;0.40;;;0.40;;
62945;SDS011;52164;52.212;-1.010;2022-08-02T02:23:16;0.40;;;0.40;;
62945;SDS011;52164;52.212;-1.010;2022-08-02T02:25:42;0.40;;;0.40;;
62945;SDS011;52164;52.212;-1.010;2022-08-02T02:28:11;0.40;;;0.40;;
62945;SDS011;52164;52.212;-1.010;2022-08-02T02:30:39;0.40;;;0.40;;
62945;SDS011;52164;52.212;-1.010;2022-08-02T02:33:09;0.40;;;0.40;;
62945;SDS011;52164;52.212;-1.010;2022-08-02T02:35:37;0.40;;;0.40;;
62945;SDS011;52164;52.212;-1.010;2022-08-02T02:38:05;0.40;;;0.40;;
62945;SDS011;52164;52.212;-1.010;2022-08-02T02:40:33;0.40;;;0.40;;
62945;SDS011;52164;52.212;-1.010;2022-08-02T02:43:02;0.40;;;0.40;;
62945;SDS011;52164;52.212;-1.010;2022-08-02T02:45:29;0.40;;;0.40;;
62945;SDS011;52164;52.212;-1.010;2022-08-02T02:47:56;0.40;;;0.40;;
62945;SDS011;52164;52.212;-1.010;2022-08-02T02:50:24;0.40;;;0.40;;
62945;SDS011;52164;52.212;-1.010;2022-08-02T02:52:51;0.40;;;0.40;;
62945;SDS011;52164;52.212;-1.010;2022-08-02T02:55:17;0.40;;;0.40;;
62945;SDS011;52164;52.212;-1.010;2022-08-02T02:57:43;0.40;;;0.40;;
62945;SDS011;52164;52.212;-1.010;2022-08-02T03:00:11;0.40;;;0.40;;
62945;SDS011;52164;52.212;-1.010;2022-08-02T03:02:39;0.40;;;0.40;;
62945;SDS011;52164;52.212;-1.010;2022-08-02T03:05:07;0.30;;;0.30;;
62945;SDS011;52164;52.212;-1.010;2022-08-02T03:07:34;0.40;;;0.40;;
62945;SDS011;52164;52.212;-1.010;2022-08-02T03:10:02;0.40;;;0.40;;
62945;SDS011;52164;52.212;-1.010;2022-08-02T03:12:28;0.40;;;0.40;;
62945;SDS011;52164;52.212;-1.010;2022-08-02T03:14:54;0.40;;;0.40;;
62945;SDS011;52164;52.212;-1.010;2022-08-02T03:17:21;0.40;;;0.40;;
62945;SDS011;52164;52.212;-1.010;2022-08-02T03:19:47;0.40;;;0.40;;
62945;SDS011;52164;52.212;-1.010;2022-08-02T03:22:12;0.40;;;0.40;;
62945;SDS011;52164;52.212;-1.010;2022-08-02T03:24:38;0.40;;;0.40;;
62945;SDS011;52164;52.212;-1.010;2022-08-02T03:27:03;0.40;;;0.40;;
62945;SDS011;52164;52.212;-1.010;2022-08-02T03:29:28;0.30;;;0.30;;
62945;SDS011;52164;52.212;-1.010;2022-08-02T03:31:54;0.40;;;0.40;;
62945;SDS011;52164;52.212;-1.010;2022-08-02T03:34:21;0.40;;;0.40;;
62945;SDS011;52164;52.212;-1.010;2022-08-02T03:36:48;0.40;;;0.40;;
62945;SDS011;52164;52.212;-1.010;2022-08-02T03:39:16;0.40;;;0.40;;
62945;SDS011;52164;52.212;-1.010;2022-08-02T03:41:44;0.40;;;0.40;;
62945;SDS011;52164;52.212;-1.010;2022-08-02T03:44:11;0.40;;;0.40;;
62945;SDS011;52164;52.212;-1.010;2022-08-02T03:46:37;0.40;;;0.40;;
62945;SDS011;52164;52.212;-1.010;2022-08-02T03:49:05;0.40;;;0.40;;
62945;SDS011;52164;52.212;-1.010;2022-08-02T03:51:32;0.30;;;0.30;;
62945;SDS011;52164;52.212;-1.010;2022-08-02T03:54:00;0.40;;;0.40;;
62945;SDS011;52164;52.212;-1.010;2022-08-02T03:56:27;0.40;;;0.40;;
62945;SDS011;52164;52.212;-1.010;2022-08-02T03:59:09;0.40;;;0.40;;
62945;SDS011;52164;52.212;-1.010;2022-08-02T04:01:36;0.40;;;0.40;;
62945;SDS011;52164;52.212;-1.010;2022-08-02T04:04:02;0.40;;;0.40;;
62945;SDS011;52164;52.212;-1.010;2022-08-02T04:06:28;0.40;;;0.40;;
62945;SDS011;52164;52.212;-1.010;2022-08-02T04:08:53;0.40;;;0.40;;
62945;SDS011;52164;52.212;-1.010;2022-08-02T04:11:19;0.30;;;0.30;;
62945;SDS011;52164;52.212;-1.010;2022-08-02T04:14:07;0.40;;;0.40;;
62945;SDS011;52164;52.212;-1.010;2022-08-02T04:16:43;0.40;;;0.40;;
62945;SDS011;52164;52.212;-1.010;2022-08-02T04:19:14;0.40;;;0.40;;
62945;SDS011;52164;52.212;-1.010;2022-08-02T04:21:45;0.40;;;0.40;;
62945;SDS011;52164;52.212;-1.010;2022-08-02T04:24:13;0.30;;;0.30;;
62945;SDS011;52164;52.212;-1.010;2022-08-02T04:26:42;0.40;;;0.40;;
62945;SDS011;52164;52.212;-1.010;2022-08-02T04:29:09;0.40;;;0.40;;
62945;SDS011;52164;52.212;-1.010;2022-08-02T04:31:36;0.40;;;0.40;;
62945;SDS011;52164;52.212;-1.010;2022-08-02T04:34:02;0.40;;;0.40;;
62945;SDS011;52164;52.212;-1.010;2022-08-02T04:36:29;0.40;;;0.40;;
62945;SDS011;52164;52.212;-1.010;2022-08-02T04:38:54;0.30;;;0.30;;
62945;SDS011;52164;52.212;-1.010;2022-08-02T04:41:20;0.40;;;0.40;;
62945;SDS011;52164;52.212;-1.010;2022-08-02T04:43:45;0.40;;;0.40;;
62945;SDS011;52164;52.212;-1.010;2022-08-02T04:46:11;0.40;;;0.40;;
62945;SDS011;52164;52.212;-1.010;2022-08-02T04:48:37;0.40;;;0.40;;
62945;SDS011;52164;52.212;-1.010;2022-08-02T04:51:02;0.40;;;0.40;;
62945;SDS011;52164;52.212;-1.010;2022-08-02T04:53:28;0.40;;;0.40;;
62945;SDS011;52164;52.212;-1.010;2022-08-02T04:55:53;0.40;;;0.40;;
62945;SDS011;52164;52.212;-1.010;2022-08-02T04:58:19;0.40;;;0.40;;
62945;SDS011;52164;52.212;-1.010;2022-08-02T05:00:44;0.40;;;0.40;;
62945;SDS011;52164;52.212;-1.010;2022-08-02T05:03:10;0.40;;;0.40;;
62945;SDS011;52164;52.212;-1.010;2022-08-02T05:05:36;0.40;;;0.40;;
62945;SDS011;52164;52.212;-1.010;2022-08-02T05:08:02;0.40;;;0.40;;
62945;SDS011;52164;52.212;-1.010;2022-08-02T05:10:28;0.40;;;0.40;;
62945;SDS011;52164;52.212;-1.010;2022-08-02T05:12:53;0.40;;;0.40;;
62945;SDS011;52164;52.212;-1.010;2022-08-02T05:15:19;0.40;;;0.40;;
62945;SDS011;52164;52.212;-1.010;2022-08-02T05:17:45;0.40;;;0.40;;
62945;SDS011;52164;52.212;-1.010;2022-08-02T05:20:12;0.40;;;0.40;;
62945;SDS011;52164;52.212;-1.010;2022-08-02T05:22:39;0.40;;;0.40;;
62945;SDS011;52164;52.212;-1.010;2022-08-02T05:25:05;0.40;;;0.40;;
62945;SDS011;52164;52.212;-1.010;2022-08-02T05:27:31;0.40;;;0.40;;
62945;SDS011;52164;52.212;-1.010;2022-08-02T05:29:57;0.40;;;0.40;;
62945;SDS011;52164;52.212;-1.010;2022-08-02T05:32:23;0.40;;;0.40;;
62945;SDS011;52164;52.212;-1.010;2022-08-02T05:34:50;0.40;;;0.40;;
62945;SDS011;52164;52.212;-1.010;2022-08-02T05:37:15;0.40;;;0.40;;
62945;SDS011;52164;52.212;-1.010;2022-08-02T05:39:41;0.40;;;0.40;;
62945;SDS011;52164;52.212;-1.010;2022-08-02T05:42:06;0.40;;;0.40;;
62945;SDS011;52164;52.212;-1.010;2022-08-02T05:44:32;0.40;;;0.40;;
62945;SDS011;52164;52.212;-1.010;2022-08-02T05:46:57;0.40;;;0.40;;
62945;SDS011;52164;52.212;-1.010;2022-08-02T05:49:23;0.40;;;0.40;;
62945;SDS011;52164;52.212;-1.010;2022-08-02T05:51:52;0.30;;;0.30;;
62945;SDS011;52164;52.212;-1.010;2022-08-02T05:54:35;0.40;;;0.40;;
62945;SDS011;52164;52.212;-1.010;2022-08-02T05:59:31;0.30;;;0.30;;
62945;SDS011;52164;52.212;-1.010;2022-08-02T06:02:02;0.30;;;0.30;;
62945;SDS011;52164;52.212;-1.010;2022-08-02T06:04:47;0.30;;;0.30;;
62945;SDS011;52164;52.212;-1.010;2022-08-02T06:07:20;0.40;;;0.40;;
62945;SDS011;52164;52.212;-1.010;2022-08-02T06:09:48;0.40;;;0.40;;
62945;SDS011;52164;52.212;-1.010;2022-08-02T06:12:15;0.30;;;0.30;;
62945;SDS011;52164;52.212;-1.010;2022-08-02T06:14:41;0.40;;;0.40;;
62945;SDS011;52164;52.212;-1.010;2022-08-02T06:17:07;0.40;;;0.40;;
62945;SDS011;52164;52.212;-1.010;2022-08-02T06:19:35;0.40;;;0.40;;
62945;SDS011;52164;52.212;-1.010;2022-08-02T06:22:02;0.40;;;0.40;;
62945;SDS011;52164;52.212;-1.010;2022-08-02T06:24:43;0.40;;;0.40;;
62945;SDS011;52164;52.212;-1.010;2022-08-02T06:27:12;0.40;;;0.40;;
62945;SDS011;52164;52.212;-1.010;2022-08-02T06:29:39;0.30;;;0.30;;
62945;SDS011;52164;52.212;-1.010;2022-08-02T06:32:07;0.40;;;0.40;;
62945;SDS011;52164;52.212;-1.010;2022-08-02T06:34:40;0.40;;;0.40;;
62945;SDS011;52164;52.212;-1.010;2022-08-02T06:40:01;0.40;;;0.40;;
62945;SDS011;52164;52.212;-1.010;2022-08-02T06:42:31;0.40;;;0.40;;
62945;SDS011;52164;52.212;-1.010;2022-08-02T06:45:07;0.40;;;0.40;;
62945;SDS011;52164;52.212;-1.010;2022-08-02T06:47:33;0.40;;;0.40;;
62945;SDS011;52164;52.212;-1.010;2022-08-02T06:49:58;0.40;;;0.40;;
62945;SDS011;52164;52.212;-1.010;2022-08-02T06:52:25;0.40;;;0.40;;
62945;SDS011;52164;52.212;-1.010;2022-08-02T06:54:52;0.40;;;0.40;;
62945;SDS011;52164;52.212;-1.010;2022-08-02T06:57:19;0.30;;;0.30;;
62945;SDS011;52164;52.212;-1.010;2022-08-02T06:59:45;0.30;;;0.30;;
62945;SDS011;52164;52.212;-1.010;2022-08-02T07:02:11;0.30;;;0.30;;
62945;SDS011;52164;52.212;-1.010;2022-08-02T07:04:36;0.30;;;0.30;;
62945;SDS011;52164;52.212;-1.010;2022-08-02T07:07:02;0.40;;;0.40;;
62945;SDS011;52164;52.212;-1.010;2022-08-02T07:09:27;0.40;;;0.40;;
62945;SDS011;52164;52.212;-1.010;2022-08-02T07:11:53;0.30;;;0.30;;
62945;SDS011;52164;52.212;-1.010;2022-08-02T07:14:19;0.40;;;0.40;;
62945;SDS011;52164;52.212;-1.010;2022-08-02T07:16:45;0.30;;;0.30;;
62945;SDS011;52164;52.212;-1.010;2022-08-02T07:19:10;0.30;;;0.30;;
62945;SDS011;52164;52.212;-1.010;2022-08-02T07:21:36;0.40;;;0.40;;
62945;SDS011;52164;52.212;-1.010;2022-08-02T07:24:02;0.40;;;0.40;;
62945;SDS011;52164;52.212;-1.010;2022-08-02T07:26:27;0.40;;;0.40;;
62945;SDS011;52164;52.212;-1.010;2022-08-02T07:28:53;0.40;;;0.40;;
62945;SDS011;52164;52.212;-1.010;2022-08-02T07:31:19;0.40;;;0.40;;
62945;SDS011;52164;52.212;-1.010;2022-08-02T07:33:45;0.40;;;0.40;;
62945;SDS011;52164;52.212;-1.010;2022-08-02T07:36:10;0.40;;;0.40;;
62945;SDS011;52164;52.212;-1.010;2022-08-02T07:38:36;0.30;;;0.30;;
62945;SDS011;52164;52.212;-1.010;2022-08-02T07:41:01;0.40;;;0.40;;
62945;SDS011;52164;52.212;-1.010;2022-08-02T07:43:30;0.40;;;0.40;;
62945;SDS011;52164;52.212;-1.010;2022-08-02T07:45:56;0.40;;;0.40;;
62945;SDS011;52164;52.212;-1.010;2022-08-02T07:48:21;0.40;;;0.40;;
62945;SDS011;52164;52.212;-1.010;2022-08-02T07:50:47;0.40;;;0.40;;
62945;SDS011;52164;52.212;-1.010;2022-08-02T07:53:13;0.40;;;0.40;;
62945;SDS011;52164;52.212;-1.010;2022-08-02T07:55:39;0.40;;;0.40;;
62945;SDS011;52164;52.212;-1.010;2022-08-02T07:58:04;0.40;;;0.40;;
62945;SDS011;52164;52.212;-1.010;2022-08-02T08:00:30;0.30;;;0.30;;
62945;SDS011;52164;52.212;-1.010;2022-08-02T08:02:56;0.40;;;0.40;;
62945;SDS011;52164;52.212;-1.010;2022-08-02T08:05:21;0.40;;;0.40;;
62945;SDS011;52164;52.212;-1.010;2022-08-02T08:07:47;0.30;;;0.30;;
62945;SDS011;52164;52.212;-1.010;2022-08-02T08:10:13;0.40;;;0.40;;
62945;SDS011;52164;52.212;-1.010;2022-08-02T08:12:38;0.40;;;0.40;;
62945;SDS011;52164;52.212;-1.010;2022-08-02T08:15:04;0.40;;;0.40;;
62945;SDS011;52164;52.212;-1.010;2022-08-02T08:17:30;0.30;;;0.30;;
62945;SDS011;52164;52.212;-1.010;2022-08-02T08:19:56;0.30;;;0.30;;
62945;SDS011;52164;52.212;-1.010;2022-08-02T08:22:22;0.30;;;0.30;;
62945;SDS011;52164;52.212;-1.010;2022-08-02T08:24:48;0.30;;;0.30;;
62945;SDS011;52164;52.212;-1.010;2022-08-02T08:27:15;0.40;;;0.40;;
62945;SDS011;52164;52.212;-1.010;2022-08-02T08:29:42;0.40;;;0.40;;
62945;SDS011;52164;52.212;-1.010;2022-08-02T08:32:07;0.30;;;0.30;;
62945;SDS011;52164;52.212;-1.010;2022-08-02T08:34:33;0.30;;;0.30;;
62945;SDS011;52164;52.212;-1.010;2022-08-02T08:36:59;0.40;;;0.40;;
62945;SDS011;52164;52.212;-1.010;2022-08-02T08:39:27;0.40;;;0.40;;
62945;SDS011;52164;52.212;-1.010;2022-08-02T08:41:52;0.30;;;0.30;;
62945;SDS011;52164;52.212;-1.010;2022-08-02T08:44:18;0.40;;;0.40;;
62945;SDS011;52164;52.212;-1.010;2022-08-02T08:46:43;0.40;;;0.40;;
62945;SDS011;52164;52.212;-1.010;2022-08-02T08:52:05;0.30;;;0.30;;
62945;SDS011;52164;52.212;-1.010;2022-08-02T08:54:32;0.30;;;0.30;;
62945;SDS011;52164;52.212;-1.010;2022-08-02T08:56:59;0.30;;;0.30;;
62945;SDS011;52164;52.212;-1.010;2022-08-02T08:59:28;0.30;;;0.30;;
62945;SDS011;52164;52.212;-1.010;2022-08-02T09:01:54;0.40;;;0.40;;
62945;SDS011;52164;52.212;-1.010;2022-08-02T09:04:21;0.40;;;0.40;;
62945;SDS011;52164;52.212;-1.010;2022-08-02T09:06:47;0.30;;;0.30;;
62945;SDS011;52164;52.212;-1.010;2022-08-02T09:09:13;0.40;;;0.40;;
62945;SDS011;52164;52.212;-1.010;2022-08-02T09:11:38;0.40;;;0.40;;
62945;SDS011;52164;52.212;-1.010;2022-08-02T09:14:04;0.40;;;0.40;;
62945;SDS011;52164;52.212;-1.010;2022-08-02T09:16:31;0.40;;;0.40;;
62945;SDS011;52164;52.212;-1.010;2022-08-02T09:18:59;0.30;;;0.30;;
62945;SDS011;52164;52.212;-1.010;2022-08-02T09:21:41;0.30;;;0.30;;
62945;SDS011;52164;52.212;-1.010;2022-08-02T09:24:15;0.30;;;0.30;;
62945;SDS011;52164;52.212;-1.010;2022-08-02T09:26:42;0.40;;;0.40;;
62945;SDS011;52164;52.212;-1.010;2022-08-02T09:29:08;0.40;;;0.40;;
62945;SDS011;52164;52.212;-1.010;2022-08-02T09:31:34;0.30;;;0.30;;
62945;SDS011;52164;52.212;-1.010;2022-08-02T09:33:59;0.40;;;0.40;;
62945;SDS011;52164;52.212;-1.010;2022-08-02T09:36:26;0.40;;;0.40;;
62945;SDS011;52164;52.212;-1.010;2022-08-02T09:39:03;0.30;;;0.30;;
62945;SDS011;52164;52.212;-1.010;2022-08-02T09:41:31;0.40;;;0.40;;
62945;SDS011;52164;52.212;-1.010;2022-08-02T09:44:00;0.30;;;0.30;;
62945;SDS011;52164;52.212;-1.010;2022-08-02T09:46:28;0.30;;;0.30;;
62945;SDS011;52164;52.212;-1.010;2022-08-02T09:49:12;0.30;;;0.30;;
62945;SDS011;52164;52.212;-1.010;2022-08-02T09:51:49;0.40;;;0.40;;
62945;SDS011;52164;52.212;-1.010;2022-08-02T09:54:16;0.30;;;0.30;;
62945;SDS011;52164;52.212;-1.010;2022-08-02T09:56:45;0.40;;;0.40;;
62945;SDS011;52164;52.212;-1.010;2022-08-02T09:59:11;0.40;;;0.40;;
62945;SDS011;52164;52.212;-1.010;2022-08-02T10:01:38;0.40;;;0.40;;
62945;SDS011;52164;52.212;-1.010;2022-08-02T10:04:06;0.40;;;0.40;;
62945;SDS011;52164;52.212;-1.010;2022-08-02T10:06:35;0.30;;;0.30;;
62945;SDS011;52164;52.212;-1.010;2022-08-02T10:09:02;0.40;;;0.40;;
62945;SDS011;52164;52.212;-1.010;2022-08-02T10:11:28;0.30;;;0.30;;
62945;SDS011;52164;52.212;-1.010;2022-08-02T10:13:54;0.30;;;0.30;;
62945;SDS011;52164;52.212;-1.010;2022-08-02T10:16:20;0.30;;;0.30;;
62945;SDS011;52164;52.212;-1.010;2022-08-02T10:18:48;0.30;;;0.30;;
62945;SDS011;52164;52.212;-1.010;2022-08-02T10:21:19;0.40;;;0.40;;
62945;SDS011;52164;52.212;-1.010;2022-08-02T10:23:48;0.40;;;0.40;;
62945;SDS011;52164;52.212;-1.010;2022-08-02T10:26:15;0.30;;;0.30;;
62945;SDS011;52164;52.212;-1.010;2022-08-02T10:28:42;0.40;;;0.40;;
62945;SDS011;52164;52.212;-1.010;2022-08-02T10:31:11;0.40;;;0.40;;
62945;SDS011;52164;52.212;-1.010;2022-08-02T10:33:41;0.30;;;0.30;;
62945;SDS011;52164;52.212;-1.010;2022-08-02T10:36:10;0.40;;;0.40;;
62945;SDS011;52164;52.212;-1.010;2022-08-02T10:38:38;0.30;;;0.30;;
62945;SDS011;52164;52.212;-1.010;2022-08-02T10:41:04;0.40;;;0.40;;
62945;SDS011;52164;52.212;-1.010;2022-08-02T10:43:39;0.40;;;0.40;;
62945;SDS011;52164;52.212;-1.010;2022-08-02T10:46:38;0.40;;;0.40;;
62945;SDS011;52164;52.212;-1.010;2022-08-02T10:49:27;0.30;;;0.30;;
62945;SDS011;52164;52.212;-1.010;2022-08-02T10:52:14;0.40;;;0.40;;
62945;SDS011;52164;52.212;-1.010;2022-08-02T10:56:55;0.40;;;0.40;;
62945;SDS011;52164;52.212;-1.010;2022-08-02T10:59:37;0.30;;;0.30;;
62945;SDS011;52164;52.212;-1.010;2022-08-02T11:02:03;0.30;;;0.30;;
62945;SDS011;52164;52.212;-1.010;2022-08-02T11:07:16;0.40;;;0.40;;
62945;SDS011;52164;52.212;-1.010;2022-08-02T11:09:44;0.30;;;0.30;;
62945;SDS011;52164;52.212;-1.010;2022-08-02T11:12:12;0.30;;;0.30;;
62945;SDS011;52164;52.212;-1.010;2022-08-02T11:14:40;0.30;;;0.30;;
62945;SDS011;52164;52.212;-1.010;2022-08-02T11:17:10;0.30;;;0.30;;
62945;SDS011;52164;52.212;-1.010;2022-08-02T11:20:13;0.40;;;0.40;;
62945;SDS011;52164;52.212;-1.010;2022-08-02T11:22:41;0.40;;;0.40;;
62945;SDS011;52164;52.212;-1.010;2022-08-02T11:25:28;0.30;;;0.30;;
62945;SDS011;52164;52.212;-1.010;2022-08-02T11:27:56;0.40;;;0.40;;
62945;SDS011;52164;52.212;-1.010;2022-08-02T11:30:25;0.40;;;0.40;;
62945;SDS011;52164;52.212;-1.010;2022-08-02T11:32:55;0.40;;;0.40;;
62945;SDS011;52164;52.212;-1.010;2022-08-02T11:35:22;0.50;;;0.50;;
62945;SDS011;52164;52.212;-1.010;2022-08-02T11:37:55;0.40;;;0.40;;
62945;SDS011;52164;52.212;-1.010;2022-08-02T11:40:22;0.40;;;0.40;;
62945;SDS011;52164;52.212;-1.010;2022-08-02T11:42:48;0.30;;;0.30;;
62945;SDS011;52164;52.212;-1.010;2022-08-02T11:45:15;0.30;;;0.30;;
62945;SDS011;52164;52.212;-1.010;2022-08-02T11:47:49;0.40;;;0.40;;
62945;SDS011;52164;52.212;-1.010;2022-08-02T11:50:17;0.40;;;0.40;;
62945;SDS011;52164;52.212;-1.010;2022-08-02T11:52:44;0.40;;;0.40;;
62945;SDS011;52164;52.212;-1.010;2022-08-02T11:55:11;0.40;;;0.40;;
62945;SDS011;52164;52.212;-1.010;2022-08-02T11:57:38;0.30;;;0.30;;
62945;SDS011;52164;52.212;-1.010;2022-08-02T12:00:05;0.30;;;0.30;;
62945;SDS011;52164;52.212;-1.010;2022-08-02T12:02:44;0.40;;;0.40;;
62945;SDS011;52164;52.212;-1.010;2022-08-02T12:05:15;0.30;;;0.30;;
62945;SDS011;52164;52.212;-1.010;2022-08-02T12:07:43;0.30;;;0.30;;
62945;SDS011;52164;52.212;-1.010;2022-08-02T12:10:11;0.30;;;0.30;;
62945;SDS011;52164;52.212;-1.010;2022-08-02T12:12:55;0.30;;;0.30;;
62945;SDS011;52164;52.212;-1.010;2022-08-02T12:15:38;0.30;;;0.30;;
62945;SDS011;52164;52.212;-1.010;2022-08-02T12:18:09;0.30;;;0.30;;
62945;SDS011;52164;52.212;-1.010;2022-08-02T12:20:56;0.40;;;0.40;;
62945;SDS011;52164;52.212;-1.010;2022-08-02T12:23:22;0.30;;;0.30;;
62945;SDS011;52164;52.212;-1.010;2022-08-02T12:26:04;0.40;;;0.40;;
62945;SDS011;52164;52.212;-1.010;2022-08-02T12:28:34;0.30;;;0.30;;
62945;SDS011;52164;52.212;-1.010;2022-08-02T12:31:03;0.30;;;0.30;;
62945;SDS011;52164;52.212;-1.010;2022-08-02T12:33:47;0.30;;;0.30;;
62945;SDS011;52164;52.212;-1.010;2022-08-02T12:36:19;0.40;;;0.40;;
62945;SDS011;52164;52.212;-1.010;2022-08-02T12:38:55;0.30;;;0.30;;
62945;SDS011;52164;52.212;-1.010;2022-08-02T12:41:23;0.30;;;0.30;;
62945;SDS011;52164;52.212;-1.010;2022-08-02T12:43:50;0.40;;;0.40;;
62945;SDS011;52164;52.212;-1.010;2022-08-02T12:46:17;0.40;;;0.40;;
62945;SDS011;52164;52.212;-1.010;2022-08-02T12:48:44;0.40;;;0.40;;
62945;SDS011;52164;52.212;-1.010;2022-08-02T12:51:26;0.40;;;0.40;;
62945;SDS011;52164;52.212;-1.010;2022-08-02T12:53:54;0.40;;;0.40;;
62945;SDS011;52164;52.212;-1.010;2022-08-02T12:56:36;0.30;;;0.30;;
62945;SDS011;52164;52.212;-1.010;2022-08-02T12:59:03;0.40;;;0.40;;
62945;SDS011;52164;52.212;-1.010;2022-08-02T13:01:29;0.30;;;0.30;;
62945;SDS011;52164;52.212;-1.010;2022-08-02T13:03:55;0.30;;;0.30;;
62945;SDS011;52164;52.212;-1.010;2022-08-02T13:06:22;0.40;;;0.40;;
62945;SDS011;52164;52.212;-1.010;2022-08-02T13:08:48;0.30;;;0.30;;
62945;SDS011;52164;52.212;-1.010;2022-08-02T13:11:15;0.30;;;0.30;;
62945;SDS011;52164;52.212;-1.010;2022-08-02T13:13:41;0.40;;;0.40;;
62945;SDS011;52164;52.212;-1.010;2022-08-02T13:16:08;0.40;;;0.40;;
62945;SDS011;52164;52.212;-1.010;2022-08-02T13:18:34;0.30;;;0.30;;
62945;SDS011;52164;52.212;-1.010;2022-08-02T13:21:00;0.30;;;0.30;;
62945;SDS011;52164;52.212;-1.010;2022-08-02T13:23:28;0.30;;;0.30;;
62945;SDS011;52164;52.212;-1.010;2022-08-02T13:25:54;0.30;;;0.30;;
62945;SDS011;52164;52.212;-1.010;2022-08-02T13:28:20;0.30;;;0.30;;
62945;SDS011;52164;52.212;-1.010;2022-08-02T13:30:46;0.30;;;0.30;;
62945;SDS011;52164;52.212;-1.010;2022-08-02T13:33:12;0.50;;;0.50;;
62945;SDS011;52164;52.212;-1.010;2022-08-02T13:35:37;0.40;;;0.40;;
62945;SDS011;52164;52.212;-1.010;2022-08-02T13:38:03;0.40;;;0.40;;
62945;SDS011;52164;52.212;-1.010;2022-08-02T13:40:31;0.70;;;0.70;;
62945;SDS011;52164;52.212;-1.010;2022-08-02T13:42:56;0.80;;;0.80;;
62945;SDS011;52164;52.212;-1.010;2022-08-02T13:45:22;0.90;;;0.90;;
62945;SDS011;52164;52.212;-1.010;2022-08-02T13:47:48;0.70;;;0.70;;
62945;SDS011;52164;52.212;-1.010;2022-08-02T13:50:14;0.70;;;0.70;;
62945;SDS011;52164;52.212;-1.010;2022-08-02T13:52:40;0.90;;;0.90;;
62945;SDS011;52164;52.212;-1.010;2022-08-02T13:55:06;0.80;;;0.80;;
62945;SDS011;52164;52.212;-1.010;2022-08-02T13:57:32;0.80;;;0.80;;
62945;SDS011;52164;52.212;-1.010;2022-08-02T13:59:57;0.90;;;0.90;;
62945;SDS011;52164;52.212;-1.010;2022-08-02T14:02:23;0.60;;;0.60;;
62945;SDS011;52164;52.212;-1.010;2022-08-02T14:04:49;0.90;;;0.90;;
62945;SDS011;52164;52.212;-1.010;2022-08-02T14:07:14;0.80;;;0.80;;
62945;SDS011;52164;52.212;-1.010;2022-08-02T14:09:40;0.90;;;0.90;;
62945;SDS011;52164;52.212;-1.010;2022-08-02T14:12:07;0.90;;;0.90;;
62945;SDS011;52164;52.212;-1.010;2022-08-02T14:14:34;0.80;;;0.80;;
62945;SDS011;52164;52.212;-1.010;2022-08-02T14:16:59;0.80;;;0.80;;
62945;SDS011;52164;52.212;-1.010;2022-08-02T14:19:25;0.80;;;0.80;;
62945;SDS011;52164;52.212;-1.010;2022-08-02T14:21:51;1.00;;;1.00;;
62945;SDS011;52164;52.212;-1.010;2022-08-02T14:24:17;0.90;;;0.90;;
62945;SDS011;52164;52.212;-1.010;2022-08-02T14:26:46;0.90;;;0.90;;
62945;SDS011;52164;52.212;-1.010;2022-08-02T14:29:12;1.00;;;1.00;;
62945;SDS011;52164;52.212;-1.010;2022-08-02T14:31:39;0.90;;;0.90;;
62945;SDS011;52164;52.212;-1.010;2022-08-02T14:34:05;0.80;;;0.80;;
62945;SDS011;52164;52.212;-1.010;2022-08-02T14:36:31;0.50;;;0.50;;
62945;SDS011;52164;52.212;-1.010;2022-08-02T14:38:57;0.40;;;0.40;;
62945;SDS011;52164;52.212;-1.010;2022-08-02T14:41:23;0.40;;;0.40;;
62945;SDS011;52164;52.212;-1.010;2022-08-02T14:43:48;0.40;;;0.40;;
62945;SDS011;52164;52.212;-1.010;2022-08-02T14:46:31;0.40;;;0.40;;
62945;SDS011;52164;52.212;-1.010;2022-08-02T14:48:58;0.30;;;0.30;;
62945;SDS011;52164;52.212;-1.010;2022-08-02T14:51:27;0.40;;;0.40;;
62945;SDS011;52164;52.212;-1.010;2022-08-02T14:53:53;0.30;;;0.30;;
62945;SDS011;52164;52.212;-1.010;2022-08-02T14:56:19;0.20;;;0.20;;
62945;SDS011;52164;52.212;-1.010;2022-08-02T14:58:44;0.30;;;0.30;;
62945;SDS011;52164;52.212;-1.010;2022-08-02T15:01:10;0.30;;;0.30;;
62945;SDS011;52164;52.212;-1.010;2022-08-02T15:03:35;0.30;;;0.30;;